Terminal Aerodrome Forecast
Issued by NWS

Home | Current Version | Previous Version | Text Only | Print | Product List | Glossary On
Versions: 1 2 3 4 5 6 7 8 9 10 11 12 13 14 15
000
FTUS45 KGJT 060547
TAFASE
TAF
KASE 060547Z 0606/0706 21007KT P6SM FEW150
     FM061500 18009KT P6SM BKN200
     FM061800 18010G15KT P6SM VCSH SCT090 BKN200
     FM062000 19014G24KT P6SM VCSH BKN090
     FM070200 15012KT P6SM VCSH SCT090 BKN200=

USA.gov is the U.S. government's official web portal to all federal, state and local government web resources and services.